Time;durP1;ratioP1;P1;durP2;ratioP2;P2;SDS_P1;SDS_P2;PMS_P1;PMS_P2;Temp;Humidity;BMP_temperature;BMP_pressure;BME280_temperature;BME280_humidity;BME280_pressure;Samples;Min_cycle;Max_cycle;Signal;HPM_P1;HPM_P2
2021/10/23 00:02:22;;;;;;;1.23;0.70;;;9.60;99.90;;;;;;6265028;22;20623;-87
2021/10/23 00:04:48;;;;;;;0.20;0.20;;;9.50;99.90;;;;;;6212975;22;20200;-86
2021/10/23 00:07:14;;;;;;;6.23;0.87;;;9.60;99.90;;;;;;6212199;22;20227;-87
2021/10/23 00:09:40;;;;;;;0.63;0.40;;;9.50;99.90;;;;;;6212948;22;20615;-87
2021/10/23 00:12:06;;;;;;;2.60;0.60;;;9.50;99.90;;;;;;6238480;22;20153;-88
2021/10/23 00:14:32;;;;;;;4.30;1.40;;;9.50;99.90;;;;;;6212530;22;20599;-88
2021/10/23 00:16:58;;;;;;;0.87;0.40;;;9.50;99.90;;;;;;6237744;22;20188;-87
2021/10/23 00:19:24;;;;;;;0.20;0.20;;;9.50;99.90;;;;;;6264660;22;20184;-87
2021/10/23 00:21:50;;;;;;;4.50;0.53;;;9.50;99.90;;;;;;6239191;22;20193;-88
2021/10/23 00:24:16;;;;;;;0.20;0.20;;;9.50;99.90;;;;;;6240827;22;20198;-88
2021/10/23 00:26:42;;;;;;;6.10;1.47;;;9.50;99.90;;;;;;6239464;22;20196;-88
2021/10/23 00:29:07;;;;;;;5.00;1.13;;;9.50;99.90;;;;;;6239684;22;20214;-89
2021/10/23 00:31:33;;;;;;;0.40;0.40;;;9.50;99.90;;;;;;6239250;22;20658;-89
2021/10/23 00:33:59;;;;;;;0.53;0.43;;;9.50;99.90;;;;;;6214027;22;20188;-88
2021/10/23 00:36:25;;;;;;;0.97;0.40;;;9.50;99.90;;;;;;6266065;22;20164;-89
2021/10/23 00:38:51;;;;;;;0.23;0.23;;;9.60;99.90;;;;;;6266608;22;20193;-89
2021/10/23 00:41:17;;;;;;;2.53;0.40;;;9.70;99.90;;;;;;6214843;22;20199;-86
2021/10/23 00:43:45;;;;;;;0.83;0.83;;;9.70;99.90;;;;;;6238815;22;20695;-87
2021/10/23 00:46:15;;;;;;;1.80;0.40;;;9.70;99.90;;;;;;6189952;22;20299;-90
2021/10/23 00:48:42;;;;;;;0.33;0.33;;;9.70;99.90;;;;;;6238993;22;20189;-87
2021/10/23 00:51:10;;;;;;;1.63;0.60;;;9.80;99.90;;;;;;6214585;22;20152;-93
2021/10/23 00:53:36;;;;;;;0.50;0.40;;;9.80;99.90;;;;;;6266683;22;20193;-90
2021/10/23 00:56:03;;;;;;;0.40;0.40;;;9.70;99.90;;;;;;6239766;22;20619;-88
2021/10/23 00:58:29;;;;;;;0.43;0.43;;;9.70;99.90;;;;;;6239517;22;20188;-90
2021/10/23 01:00:55;;;;;;;4.73;0.40;;;9.70;99.90;;;;;;6240197;22;20184;-88
2021/10/23 01:03:21;;;;;;;2.67;0.50;;;9.70;99.90;;;;;;6214348;22;20528;-87
2021/10/23 01:05:47;;;;;;;0.77;0.40;;;9.60;99.90;;;;;;6239627;22;20492;-88
2021/10/23 01:08:14;;;;;;;1.67;0.90;;;9.50;99.90;;;;;;6239569;22;20529;-88
2021/10/23 01:10:40;;;;;;;0.43;0.20;;;9.40;99.90;;;;;;6239289;22;20708;-87
2021/10/23 01:13:06;;;;;;;0.97;0.77;;;9.40;99.90;;;;;;6239639;22;20196;-89
2021/10/23 01:15:34;;;;;;;1.03;0.97;;;9.40;99.90;;;;;;6265861;22;20188;-88
2021/10/23 01:18:02;;;;;;;7.83;0.87;;;9.40;99.90;;;;;;6239289;22;20214;-89
2021/10/23 01:20:29;;;;;;;4.57;1.37;;;9.40;99.90;;;;;;6266001;22;20192;-88
2021/10/23 01:22:55;;;;;;;1.67;0.73;;;9.40;99.90;;;;;;6238358;22;20208;-89
2021/10/23 01:25:24;;;;;;;0.43;0.43;;;9.40;99.90;;;;;;6239238;22;20275;-89
2021/10/23 01:27:52;;;;;;;4.80;1.40;;;9.50;99.90;;;;;;6265821;22;20199;-88
2021/10/23 01:30:18;;;;;;;1.00;0.80;;;9.50;99.90;;;;;;6267118;22;20202;-89
2021/10/23 01:32:44;;;;;;;2.03;0.40;;;9.40;99.90;;;;;;6239067;22;20181;-87
2021/10/23 01:35:10;;;;;;;0.83;0.83;;;9.40;99.90;;;;;;6238956;22;20517;-90
2021/10/23 01:37:42;;;;;;;2.63;0.10;;;9.40;99.90;;;;;;6239485;22;20271;-89
2021/10/23 01:40:14;;;;;;;0.40;0.40;;;9.40;99.90;;;;;;6239312;22;20230;-90
2021/10/23 01:42:41;;;;;;;6.97;0.70;;;9.30;99.90;;;;;;6238998;22;20246;-88
2021/10/23 01:45:08;;;;;;;0.20;0.20;;;9.20;99.90;;;;;;6214409;22;20165;-87
2021/10/23 01:47:36;;;;;;;1.97;0.30;;;9.10;99.90;;;;;;6265062;22;20193;-89
2021/10/23 01:50:02;;;;;;;0.60;0.60;;;9.00;99.90;;;;;;6238382;22;20216;-87
2021/10/23 01:52:28;;;;;;;1.03;0.73;;;9.00;99.90;;;;;;6239286;22;20623;-89
2021/10/23 01:54:53;;;;;;;0.10;0.10;;;9.00;99.90;;;;;;6213868;22;20482;-88
2021/10/23 01:57:20;;;;;;;0.20;0.20;;;9.00;99.90;;;;;;6213858;22;20149;-89
2021/10/23 01:59:46;;;;;;;0.47;0.47;;;9.10;99.90;;;;;;6189352;22;20152;-88
2021/10/23 02:02:11;;;;;;;3.10;0.73;;;9.20;99.90;;;;;;6265347;22;20195;-89
2021/10/23 02:04:37;;;;;;;0.10;0.10;;;9.30;99.90;;;;;;6238746;22;20211;-88
2021/10/23 02:07:03;;;;;;;0.10;0.10;;;9.40;99.90;;;;;;6238471;22;20215;-89
2021/10/23 02:09:29;;;;;;;0.17;0.17;;;9.40;99.90;;;;;;6214446;22;20149;-88
2021/10/23 02:11:54;;;;;;;0.33;0.33;;;9.50;99.90;;;;;;6214614;22;20153;-87
2021/10/23 02:14:20;;;;;;;4.63;1.00;;;9.50;99.90;;;;;;6213688;22;20208;-87
2021/10/23 02:16:46;;;;;;;1.67;0.70;;;9.50;99.90;;;;;;6213678;22;20189;-87
2021/10/23 02:19:12;;;;;;;3.10;0.40;;;9.50;99.90;;;;;;6238453;22;20238;-87
2021/10/23 02:21:37;;;;;;;0.57;0.57;;;9.40;99.90;;;;;;6265282;22;20164;-88
2021/10/23 02:24:03;;;;;;;6.90;0.50;;;9.40;99.90;;;;;;6213624;22;20234;-88
2021/10/23 02:26:29;;;;;;;0.30;0.30;;;9.30;99.90;;;;;;6213873;22;20196;-87
2021/10/23 02:28:55;;;;;;;4.27;0.70;;;9.30;99.90;;;;;;6188669;22;20193;-87
2021/10/23 02:31:21;;;;;;;0.83;0.40;;;9.30;99.90;;;;;;6213469;22;20192;-87
2021/10/23 02:33:46;;;;;;;2.63;0.53;;;9.30;99.90;;;;;;6188306;22;20193;-88
2021/10/23 02:36:14;;;;;;;0.20;0.20;;;9.20;99.90;;;;;;6213650;22;20157;-88
2021/10/23 02:38:40;;;;;;;3.87;0.83;;;9.10;99.90;;;;;;6238968;22;20535;-86
2021/10/23 02:41:05;;;;;;;0.60;0.60;;;9.00;99.90;;;;;;6238602;22;20201;-88
2021/10/23 02:43:31;;;;;;;0.27;0.13;;;9.00;99.90;;;;;;6212034;22;20209;-88
2021/10/23 02:45:57;;;;;;;0.60;0.60;;;8.90;99.90;;;;;;6213925;22;20197;-87
2021/10/23 02:48:23;;;;;;;4.57;1.33;;;8.80;99.90;;;;;;6265634;22;20164;-87
2021/10/23 02:50:49;;;;;;;0.60;0.57;;;8.80;99.90;;;;;;6188721;22;20568;-87
2021/10/23 02:53:15;;;;;;;7.07;0.90;;;8.70;99.90;;;;;;6265097;22;20529;-88
2021/10/23 02:55:41;;;;;;;0.33;0.33;;;8.70;99.90;;;;;;6238032;22;20193;-88
2021/10/23 02:58:07;;;;;;;0.60;0.47;;;8.60;99.90;;;;;;6212716;22;20189;-88
2021/10/23 03:00:33;;;;;;;0.20;0.17;;;8.60;99.90;;;;;;6238075;22;20157;-88
2021/10/23 03:02:59;;;;;;;4.63;0.60;;;8.50;99.90;;;;;;6238863;22;20377;-88
2021/10/23 03:05:24;;;;;;;1.20;0.37;;;8.50;99.90;;;;;;6238244;22;20630;-88
2021/10/23 03:07:50;;;;;;;1.03;0.63;;;8.50;99.90;;;;;;6264397;22;20307;-88
2021/10/23 03:10:16;;;;;;;0.60;0.43;;;8.50;99.90;;;;;;6237998;22;20639;-88
2021/10/23 03:12:42;;;;;;;4.80;0.67;;;8.50;99.90;;;;;;6265120;22;20618;-89
2021/10/23 03:15:08;;;;;;;0.20;0.20;;;8.50;99.90;;;;;;6213534;22;20185;-90
2021/10/23 03:17:34;;;;;;;1.30;0.90;;;8.60;99.90;;;;;;6264907;22;20192;-90
2021/10/23 03:20:02;;;;;;;2.33;0.37;;;8.70;99.90;;;;;;6264849;22;20199;-87
2021/10/23 03:22:27;;;;;;;0.10;0.10;;;8.80;99.90;;;;;;6213350;22;20460;-87
2021/10/23 03:24:53;;;;;;;0.67;0.20;;;8.90;99.90;;;;;;6212467;22;20226;-89
2021/10/23 03:27:22;;;;;;;0.90;0.50;;;9.00;99.90;;;;;;6236914;22;20477;-88
2021/10/23 03:29:49;;;;;;;2.90;0.77;;;9.10;99.90;;;;;;6239440;22;20596;-88
2021/10/23 03:32:16;;;;;;;1.40;0.43;;;9.20;99.90;;;;;;6265015;22;20192;-88
2021/10/23 03:34:41;;;;;;;3.77;0.97;;;9.20;99.90;;;;;;6265045;22;20423;-88
2021/10/23 03:37:07;;;;;;;1.17;0.50;;;9.20;99.90;;;;;;6212771;22;20189;-88
2021/10/23 03:39:33;;;;;;;2.10;0.40;;;9.20;99.90;;;;;;6212893;22;20195;-86
2021/10/23 03:41:58;;;;;;;0.23;0.23;;;9.20;99.90;;;;;;6237903;22;20148;-86
2021/10/23 03:44:24;;;;;;;14.23;0.67;;;9.10;99.90;;;;;;6237709;22;20254;-87
2021/10/23 03:46:50;;;;;;;7.13;0.67;;;9.00;99.90;;;;;;6212284;22;20869;-87
2021/10/23 03:49:16;;;;;;;3.97;0.50;;;9.00;99.90;;;;;;6212278;22;20565;-85
2021/10/23 03:51:43;;;;;;;7.13;0.83;;;9.00;99.90;;;;;;6237856;22;20319;-87
2021/10/23 03:54:09;;;;;;;5.00;0.90;;;9.00;99.90;;;;;;6212682;22;20161;-87
2021/10/23 03:56:34;;;;;;;1.93;0.40;;;9.10;99.90;;;;;;6239830;22;20219;-87
2021/10/23 03:59:00;;;;;;;2.10;0.50;;;9.10;99.90;;;;;;6239275;22;20503;-87
2021/10/23 04:01:26;;;;;;;0.50;0.43;;;9.10;99.90;;;;;;6265911;22;20207;-87
2021/10/23 04:03:53;;;;;;;3.60;0.67;;;9.20;99.90;;;;;;6239552;22;20661;-87
2021/10/23 04:06:19;;;;;;;0.53;0.53;;;9.30;99.90;;;;;;6239937;22;20192;-88
2021/10/23 04:08:45;;;;;;;1.47;1.07;;;9.30;99.90;;;;;;6209403;23;20501;-86
2021/10/23 04:11:11;;;;;;;0.57;0.40;;;9.30;99.90;;;;;;6184183;23;20207;-87
2021/10/23 04:13:36;;;;;;;6.13;0.60;;;9.40;99.90;;;;;;6209232;22;20217;-87
2021/10/23 04:16:03;;;;;;;1.63;0.40;;;9.40;99.90;;;;;;6235770;22;20217;-87
2021/10/23 04:18:28;;;;;;;0.17;0.17;;;9.50;99.90;;;;;;6236056;22;20482;-87
2021/10/23 04:20:54;;;;;;;0.70;0.33;;;9.50;99.90;;;;;;6209726;23;20158;-86
2021/10/23 04:23:20;;;;;;;11.90;0.73;;;9.50;99.90;;;;;;6234810;22;20643;-89
2021/10/23 04:25:45;;;;;;;7.80;0.83;;;9.60;99.90;;;;;;6233899;22;20520;-88
2021/10/23 04:28:11;;;;;;;2.00;0.50;;;9.60;99.90;;;;;;6184491;23;20185;-88
2021/10/23 04:30:37;;;;;;;1.07;0.97;;;9.70;99.90;;;;;;6234241;22;20157;-88
2021/10/23 04:33:03;;;;;;;0.60;0.60;;;9.70;99.90;;;;;;6184794;23;20594;-88
2021/10/23 04:35:29;;;;;;;0.70;0.70;;;9.70;99.90;;;;;;6234354;22;20220;-89
2021/10/23 04:37:55;;;;;;;2.13;0.60;;;9.60;99.90;;;;;;6235619;22;20503;-88
2021/10/23 04:40:21;;;;;;;0.23;0.23;;;9.70;99.90;;;;;;6235544;22;20220;-87
2021/10/23 04:42:46;;;;;;;12.27;1.67;;;9.60;99.90;;;;;;6209431;23;20189;-87
2021/10/23 04:45:12;;;;;;;5.37;0.60;;;9.60;99.90;;;;;;6234705;23;20323;-88
2021/10/23 04:47:38;;;;;;;1.57;0.50;;;9.60;99.90;;;;;;6236360;22;20636;-88
2021/10/23 04:50:04;;;;;;;3.70;0.53;;;9.60;99.90;;;;;;6208974;23;20196;-88
2021/10/23 04:52:30;;;;;;;2.53;0.30;;;9.60;99.90;;;;;;6208990;23;20185;-88
2021/10/23 04:54:56;;;;;;;2.00;0.63;;;9.60;99.90;;;;;;6235553;22;20200;-88
2021/10/23 04:57:21;;;;;;;0.83;0.80;;;9.60;99.90;;;;;;6233893;22;20814;-88
2021/10/23 04:59:47;;;;;;;14.23;2.40;;;9.60;99.90;;;;;;6210036;23;20154;-87
2021/10/23 05:02:13;;;;;;;0.50;0.43;;;9.60;99.90;;;;;;6208496;23;20193;-87
2021/10/23 05:04:39;;;;;;;0.47;0.30;;;9.70;99.90;;;;;;6235993;22;20307;-87
2021/10/23 05:07:04;;;;;;;1.90;0.60;;;9.70;99.90;;;;;;6208324;23;20656;-87
2021/10/23 05:09:30;;;;;;;0.53;0.33;;;9.60;99.90;;;;;;6234317;22;20440;-87
2021/10/23 05:11:56;;;;;;;0.50;0.30;;;9.70;99.90;;;;;;6236217;22;20166;-88
2021/10/23 05:14:21;;;;;;;3.47;1.00;;;9.70;99.90;;;;;;6233698;22;20204;-87
2021/10/23 05:16:47;;;;;;;0.40;0.40;;;9.70;99.90;;;;;;6235520;22;20516;-86
2021/10/23 05:19:13;;;;;;;2.53;1.03;;;9.70;99.90;;;;;;6208437;23;20240;-86
2021/10/23 05:21:39;;;;;;;2.47;1.43;;;9.60;99.90;;;;;;6234910;22;20218;-88
2021/10/23 05:24:05;;;;;;;0.47;0.47;;;9.70;99.90;;;;;;6235388;23;20319;-88
2021/10/23 05:26:31;;;;;;;1.33;0.40;;;9.70;99.90;;;;;;6234499;22;20197;-87
2021/10/23 05:28:56;;;;;;;7.77;1.00;;;9.60;99.90;;;;;;6209998;23;20632;-88
2021/10/23 05:31:22;;;;;;;2.87;0.70;;;9.60;99.90;;;;;;6209543;23;20189;-86
2021/10/23 05:33:48;;;;;;;9.93;0.53;;;9.60;99.90;;;;;;6185002;23;20491;-86
2021/10/23 05:36:14;;;;;;;2.03;0.47;;;9.60;99.90;;;;;;6210479;23;20150;-88
2021/10/23 05:38:39;;;;;;;0.20;0.20;;;9.60;99.90;;;;;;6184941;23;20200;-88
2021/10/23 05:41:05;;;;;;;0.77;0.70;;;9.60;99.90;;;;;;6234888;22;20567;-88
2021/10/23 05:43:31;;;;;;;0.97;0.63;;;9.50;99.90;;;;;;6209817;23;20201;-88
2021/10/23 05:45:57;;;;;;;1.70;0.83;;;9.40;99.90;;;;;;6210267;23;20580;-88
2021/10/23 05:48:22;;;;;;;3.67;0.57;;;9.40;99.90;;;;;;6184273;22;20154;-88
2021/10/23 05:50:48;;;;;;;1.90;0.60;;;9.30;99.90;;;;;;6210267;23;20157;-86
2021/10/23 05:53:14;;;;;;;1.23;1.07;;;9.20;99.90;;;;;;6235320;22;20204;-88
2021/10/23 05:55:40;;;;;;;0.83;0.80;;;9.10;99.90;;;;;;6234464;22;20193;-89
2021/10/23 05:58:05;;;;;;;0.93;0.33;;;9.00;99.90;;;;;;6235936;22;20186;-86
2021/10/23 06:00:36;;;;;;;0.30;0.30;;;8.90;99.90;;;;;;6208304;22;20228;-87
2021/10/23 06:03:02;;;;;;;1.73;0.63;;;8.90;99.90;;;;;;6234719;23;20150;-86
2021/10/23 06:05:29;;;;;;;0.77;0.77;;;8.90;99.90;;;;;;6234791;22;20204;-87
2021/10/23 06:07:55;;;;;;;1.13;0.37;;;8.80;99.90;;;;;;6233887;22;20212;-87
2021/10/23 06:10:22;;;;;;;6.27;0.77;;;8.80;99.90;;;;;;6208141;22;20386;-88
2021/10/23 06:12:48;;;;;;;2.40;0.77;;;8.90;99.90;;;;;;6236186;22;20461;-86
2021/10/23 06:15:14;;;;;;;2.43;0.70;;;8.90;99.90;;;;;;6235226;23;20232;-87
2021/10/23 06:17:40;;;;;;;0.30;0.20;;;8.90;99.90;;;;;;6233754;22;20640;-87
2021/10/23 06:20:07;;;;;;;0.73;0.57;;;8.90;99.90;;;;;;6235341;22;20555;-88
2021/10/23 06:22:33;;;;;;;2.73;0.70;;;8.90;99.90;;;;;;6233758;22;20189;-88
2021/10/23 06:24:59;;;;;;;5.60;0.87;;;8.90;99.90;;;;;;6233782;22;20663;-87
2021/10/23 06:27:25;;;;;;;0.50;0.40;;;8.90;99.90;;;;;;6208257;22;20207;-86
2021/10/23 06:29:51;;;;;;;0.60;0.60;;;8.90;99.90;;;;;;6185577;23;20165;-87
2021/10/23 06:32:17;;;;;;;1.33;0.80;;;9.00;99.90;;;;;;6235033;22;20189;-87
2021/10/23 06:34:43;;;;;;;0.33;0.33;;;8.90;99.90;;;;;;6208654;23;20646;-87
2021/10/23 06:37:10;;;;;;;3.80;0.93;;;9.00;99.90;;;;;;6235412;22;20181;-89
2021/10/23 06:39:36;;;;;;;3.60;1.03;;;8.90;99.90;;;;;;6235560;22;20153;-87
2021/10/23 06:42:04;;;;;;;1.37;1.13;;;8.90;99.90;;;;;;6237259;22;20543;-88
2021/10/23 06:44:29;;;;;;;3.83;1.40;;;8.90;99.90;;;;;;6235922;22;20280;-88
2021/10/23 06:46:55;;;;;;;1.50;1.40;;;9.00;99.90;;;;;;6236265;22;20274;-88
2021/10/23 06:49:21;;;;;;;0.60;0.60;;;9.10;99.90;;;;;;6210674;23;20185;-87
2021/10/23 06:51:47;;;;;;;1.27;0.90;;;9.20;99.90;;;;;;6235537;22;20245;-88
2021/10/23 06:54:12;;;;;;;1.03;0.83;;;9.30;99.90;;;;;;6238380;23;20598;-89
2021/10/23 06:56:38;;;;;;;0.93;0.93;;;9.50;99.90;;;;;;6237931;22;20189;-89
2021/10/23 06:59:04;;;;;;;0.67;0.67;;;9.60;99.90;;;;;;6239312;22;20759;-90
2021/10/23 07:01:30;;;;;;;1.17;0.40;;;9.70;99.90;;;;;;6238854;22;20189;-89
2021/10/23 07:03:56;;;;;;;4.53;0.60;;;9.80;99.90;;;;;;6213734;23;20221;-89
2021/10/23 07:06:22;;;;;;;1.53;0.50;;;10.10;99.90;;;;;;6237803;22;20165;-88
2021/10/23 07:08:47;;;;;;;4.53;0.60;;;10.70;99.90;;;;;;6238765;22;20197;-89
2021/10/23 07:11:13;;;;;;;0.20;0.20;;;11.10;99.90;;;;;;6236088;22;20193;-90
2021/10/23 07:13:39;;;;;;;0.40;0.40;;;11.20;99.90;;;;;;6185693;23;20216;-90
2021/10/23 07:16:05;;;;;;;5.83;0.30;;;11.30;99.90;;;;;;6234774;22;20458;-90
2021/10/23 07:18:30;;;;;;;0.90;0.40;;;11.00;99.90;;;;;;6235477;22;20232;-89
2021/10/23 07:20:56;;;;;;;5.13;0.97;;;10.80;99.90;;;;;;6208789;23;20157;-89
2021/10/23 07:23:22;;;;;;;2.87;0.90;;;10.60;99.90;;;;;;6239995;22;20201;-89
2021/10/23 07:25:48;;;;;;;0.97;0.53;;;10.50;99.90;;;;;;6248032;22;20185;-88
2021/10/23 07:28:14;;;;;;;3.10;1.23;;;10.40;99.90;;;;;;6262577;22;20203;-88
2021/10/23 07:30:41;;;;;;;5.60;0.70;;;10.60;99.90;;;;;;6215402;22;20600;-88
2021/10/23 07:33:07;;;;;;;4.67;1.33;;;11.00;99.90;;;;;;6233723;23;20158;-88
2021/10/23 07:35:33;;;;;;;1.00;0.80;;;11.10;99.90;;;;;;6208808;23;20628;-88
2021/10/23 07:38:00;;;;;;;4.70;0.50;;;11.30;99.90;;;;;;6235550;22;20642;-88
2021/10/23 07:40:26;;;;;;;1.47;0.50;;;11.70;99.90;;;;;;6235775;22;20189;-88
2021/10/23 07:42:52;;;;;;;0.37;0.37;;;11.80;99.90;;;;;;6210578;23;20200;-89
2021/10/23 07:45:17;;;;;;;2.03;0.73;;;11.90;99.90;;;;;;6237233;23;20172;-89
2021/10/23 07:47:43;;;;;;;1.90;0.40;;;12.00;99.90;;;;;;6211571;23;20643;-89
2021/10/23 07:50:10;;;;;;;4.73;1.07;;;12.20;99.90;;;;;;6211334;23;20312;-88
2021/10/23 07:52:37;;;;;;;2.47;0.40;;;12.50;99.90;;;;;;6236757;22;20204;-90
2021/10/23 07:55:05;;;;;;;0.33;0.33;;;12.70;99.90;;;;;;6213104;23;20264;-90
2021/10/23 07:57:31;;;;;;;0.63;0.60;;;12.70;99.90;;;;;;6238442;22;20236;-89
2021/10/23 07:59:57;;;;;;;1.93;0.73;;;12.60;99.90;;;;;;6238579;23;20556;-89
2021/10/23 08:02:23;;;;;;;0.93;0.33;;;13.00;99.90;;;;;;6237731;22;20212;-89
2021/10/23 08:04:50;;;;;;;1.30;0.97;;;12.90;99.90;;;;;;6213809;23;20206;-88
2021/10/23 08:07:15;;;;;;;1.00;1.00;;;12.90;99.90;;;;;;6237570;22;20204;-89
2021/10/23 08:09:41;;;;;;;3.90;0.67;;;12.80;99.90;;;;;;6188353;22;20291;-91
2021/10/23 08:12:08;;;;;;;0.87;0.87;;;12.50;99.90;;;;;;6240368;22;20153;-89
2021/10/23 08:14:35;;;;;;;0.40;0.40;;;12.30;99.90;;;;;;6239313;22;20199;-90
2021/10/23 08:17:03;;;;;;;3.53;0.30;;;12.20;99.90;;;;;;6265388;22;20568;-88
2021/10/23 08:19:29;;;;;;;1.97;1.13;;;12.20;99.90;;;;;;6239511;22;20619;-89
2021/10/23 08:21:55;;;;;;;0.37;0.37;;;12.30;99.90;;;;;;6239635;22;20188;-90
2021/10/23 08:24:20;;;;;;;0.50;0.30;;;12.20;99.90;;;;;;6213018;22;20663;-91
2021/10/23 08:26:46;;;;;;;0.70;0.50;;;12.30;99.90;;;;;;6239622;22;20472;-90
2021/10/23 08:29:12;;;;;;;1.97;0.93;;;12.60;99.90;;;;;;6238553;22;20513;-89
2021/10/23 08:31:39;;;;;;;5.20;0.57;;;12.80;99.90;;;;;;6238428;22;20192;-89
2021/10/23 08:34:06;;;;;;;1.83;0.33;;;13.00;99.90;;;;;;6239395;22;20196;-90
2021/10/23 08:36:32;;;;;;;3.20;0.50;;;13.00;99.90;;;;;;6265277;22;20244;-89
2021/10/23 08:38:58;;;;;;;0.40;0.40;;;12.90;99.90;;;;;;6266491;22;20453;-89
2021/10/23 08:41:24;;;;;;;0.20;0.20;;;12.90;99.90;;;;;;6212829;22;20541;-89
2021/10/23 08:43:52;;;;;;;1.40;0.93;;;12.70;99.90;;;;;;6267399;22;20211;-90
2021/10/23 08:46:28;;;;;;;2.93;0.70;;;12.80;99.90;;;;;;6240280;22;20271;-89
2021/10/23 08:48:55;;;;;;;6.40;0.90;;;13.00;99.90;;;;;;6239955;22;20631;-89
2021/10/23 08:51:27;;;;;;;0.37;0.37;;;13.10;99.90;;;;;;6266417;22;20239;-89
2021/10/23 08:53:53;;;;;;;2.07;0.57;;;13.00;99.90;;;;;;6216327;22;20149;-90
2021/10/23 08:56:20;;;;;;;3.10;0.67;;;13.00;99.90;;;;;;6240016;22;20199;-89
2021/10/23 08:58:45;;;;;;;6.37;1.33;;;13.10;99.90;;;;;;6240079;22;20195;-88
2021/10/23 09:01:14;;;;;;;5.00;0.80;;;13.10;99.90;;;;;;6266750;22;20189;-88
2021/10/23 09:03:44;;;;;;;3.00;0.63;;;13.20;99.90;;;;;;6239895;22;20198;-89
2021/10/23 09:06:14;;;;;;;1.60;0.70;;;13.40;99.90;;;;;;6240055;22;20614;-89
2021/10/23 09:09:17;;;;;;;6.47;1.17;;;13.20;99.90;;;;;;6213996;22;20266;-89
2021/10/23 09:11:45;;;;;;;2.67;0.60;;;13.30;99.90;;;;;;6239269;22;20250;-86
2021/10/23 09:14:31;;;;;;;3.03;0.57;;;13.60;99.90;;;;;;6239228;22;20196;-88
2021/10/23 09:17:12;;;;;;;2.93;0.50;;;13.80;99.90;;;;;;6265606;22;20195;-87
2021/10/23 09:19:44;;;;;;;2.10;0.50;;;14.00;99.90;;;;;;6265960;22;20188;-88
2021/10/23 09:22:38;;;;;;;1.10;1.00;;;14.30;99.90;;;;;;6239595;22;20188;-88
2021/10/23 09:25:34;;;;;;;0.97;0.53;;;14.30;99.90;;;;;;6240074;22;20212;-89
2021/10/23 09:28:14;;;;;;;0.80;0.80;;;14.50;99.90;;;;;;6238320;22;20326;-89
2021/10/23 09:30:46;;;;;;;0.83;0.67;;;14.70;99.90;;;;;;6239918;22;20180;-89
2021/10/23 09:33:14;;;;;;;1.30;0.77;;;15.00;99.90;;;;;;6240362;22;20164;-89
2021/10/23 09:35:43;;;;;;;1.33;0.70;;;15.00;99.90;;;;;;6266882;22;20250;-88
2021/10/23 09:38:10;;;;;;;4.93;1.13;;;14.90;99.90;;;;;;6266696;22;20246;-88
2021/10/23 09:40:40;;;;;;;3.77;1.00;;;14.50;99.90;;;;;;6214099;22;20196;-89
2021/10/23 09:43:20;;;;;;;1.30;0.73;;;14.50;99.90;;;;;;6214509;22;20195;-89
2021/10/23 09:45:55;;;;;;;5.77;1.63;;;14.50;99.90;;;;;;6243027;22;20514;-88
2021/10/23 09:48:42;;;;;;;1.90;0.70;;;14.60;99.90;;;;;;6281177;22;20220;-89
2021/10/23 09:51:25;;;;;;;0.70;0.50;;;14.60;99.90;;;;;;6277427;22;20145;-90
2021/10/23 09:53:56;;;;;;;5.13;1.30;;;14.50;99.90;;;;;;6239907;22;20176;-89
2021/10/23 09:56:33;;;;;;;0.60;0.50;;;14.30;99.90;;;;;;6240068;22;20193;-89
2021/10/23 09:59:02;;;;;;;2.90;0.50;;;14.10;99.90;;;;;;6239181;22;20192;-88
2021/10/23 10:01:29;;;;;;;3.30;0.60;;;13.80;99.90;;;;;;6266510;22;20192;-89
2021/10/23 10:04:06;;;;;;;3.60;0.90;;;13.70;99.90;;;;;;6267020;22;20275;-89
2021/10/23 10:06:32;;;;;;;0.73;0.60;;;13.60;99.90;;;;;;6214335;22;20185;-88
2021/10/23 10:08:58;;;;;;;0.90;0.80;;;13.60;99.90;;;;;;6234899;22;20658;-88
2021/10/23 10:11:24;;;;;;;7.93;0.77;;;13.40;99.90;;;;;;6209094;22;20201;-88
2021/10/23 10:13:51;;;;;;;2.50;0.70;;;13.50;99.90;;;;;;6208869;23;20197;-91
2021/10/23 10:16:17;;;;;;;2.07;0.77;;;13.70;99.90;;;;;;6209130;23;20193;-89
2021/10/23 10:18:45;;;;;;;2.83;1.10;;;13.80;99.90;;;;;;6234167;22;20209;-88
2021/10/23 10:21:13;;;;;;;1.57;0.87;;;13.90;99.90;;;;;;6234472;23;20241;-88
2021/10/23 10:23:44;;;;;;;3.07;0.90;;;13.80;99.90;;;;;;6207495;23;20636;-87
2021/10/23 10:26:25;;;;;;;1.37;0.73;;;13.90;99.90;;;;;;6233438;22;20760;-86
2021/10/23 10:42:56;;;;;;;0.90;0.60;;;14.80;99.90;;;;;;6234561;22;20146;-87
2021/10/23 10:45:33;;;;;;;3.67;0.73;;;14.80;99.90;;;;;;6234350;22;20264;-86
2021/10/23 10:48:21;;;;;;;2.17;0.87;;;14.60;99.90;;;;;;6235002;22;20663;-87
2021/10/23 10:50:51;;;;;;;1.13;0.93;;;15.70;99.90;;;;;;6234020;23;20541;-87
2021/10/23 10:53:32;;;;;;;1.00;0.70;;;16.40;99.90;;;;;;6232967;22;20197;-87
2021/10/23 10:56:13;;;;;;;2.10;0.53;;;16.90;99.90;;;;;;6233960;22;20193;-87
2021/10/23 10:58:56;;;;;;;5.40;1.03;;;17.10;99.90;;;;;;6233353;22;20578;-87
2021/10/23 11:01:30;;;;;;;0.67;0.60;;;16.90;99.90;;;;;;6234269;22;20620;-86
2021/10/23 11:03:59;;;;;;;1.37;0.67;;;17.10;99.90;;;;;;6232524;22;20709;-86
2021/10/23 11:06:34;;;;;;;0.87;0.70;;;17.30;99.90;;;;;;6232743;22;20258;-87
2021/10/23 11:09:08;;;;;;;2.23;1.23;;;17.50;99.90;;;;;;6258037;22;20192;-87
2021/10/23 11:16:56;;;;;;;1.27;0.60;;;17.00;99.90;;;;;;6264687;22;20207;-87
2021/10/23 11:19:31;;;;;;;1.53;1.13;;;16.10;99.90;;;;;;6264490;22;20196;-87
2021/10/23 11:22:02;;;;;;;5.80;1.43;;;15.80;99.90;;;;;;6264726;22;20210;-87
2021/10/23 11:24:29;;;;;;;1.00;1.00;;;15.50;99.90;;;;;;6264716;22;20177;-86
2021/10/23 11:26:56;;;;;;;0.80;0.47;;;15.70;99.90;;;;;;6239127;22;20228;-87
2021/10/23 11:29:23;;;;;;;2.50;1.50;;;15.60;99.90;;;;;;6188189;22;20204;-87
2021/10/23 11:31:49;;;;;;;2.77;0.43;;;15.60;99.90;;;;;;6264783;22;20199;-88
2021/10/23 11:34:30;;;;;;;3.83;1.20;;;15.20;99.90;;;;;;6238665;22;20210;-87
2021/10/23 11:37:01;;;;;;;0.53;0.47;;;15.00;99.90;;;;;;6238179;22;20184;-87
2021/10/23 11:39:31;;;;;;;2.17;0.70;;;14.80;99.90;;;;;;6237830;22;20239;-87
2021/10/23 11:42:21;;;;;;;2.43;1.20;;;14.60;99.90;;;;;;6238853;22;20248;-86
2021/10/23 11:44:50;;;;;;;4.97;0.83;;;14.40;99.90;;;;;;6237841;22;20279;-86
2021/10/23 11:47:23;;;;;;;3.33;1.10;;;14.30;99.90;;;;;;6265318;22;20201;-86
2021/10/23 11:49:49;;;;;;;1.23;0.53;;;14.30;99.90;;;;;;6239832;22;20632;-87
2021/10/23 11:52:18;;;;;;;2.43;0.90;;;14.40;99.90;;;;;;6237792;22;20196;-87
2021/10/23 11:54:47;;;;;;;3.50;1.17;;;14.40;99.90;;;;;;6264117;22;20197;-86
2021/10/23 11:57:32;;;;;;;7.63;0.67;;;14.50;99.90;;;;;;6238138;22;20552;-87
2021/10/23 11:59:58;;;;;;;4.17;1.70;;;14.00;99.90;;;;;;6238025;22;20185;-85
2021/10/23 12:02:39;;;;;;;11.83;4.47;;;13.90;99.90;;;;;;6212808;22;20642;-86
2021/10/23 12:05:24;;;;;;;37.53;17.47;;;13.70;99.90;;;;;;6264651;22;20204;-87
2021/10/23 12:08:15;;;;;;;24.50;11.83;;;13.80;99.90;;;;;;6264981;22;20524;-88
2021/10/23 12:11:09;;;;;;;18.33;10.20;;;13.60;99.90;;;;;;6238220;22;20219;-86
2021/10/23 12:14:05;;;;;;;13.60;9.83;;;13.50;99.90;;;;;;6240545;22;20256;-86
2021/10/23 12:16:33;;;;;;;9.47;5.30;;;13.50;99.90;;;;;;6285728;22;20246;-86
2021/10/23 12:19:17;;;;;;;3.20;2.80;;;13.50;99.90;;;;;;6266919;22;20271;-86
2021/10/23 12:21:42;;;;;;;2.63;2.43;;;13.60;99.90;;;;;;6239797;22;20272;-87
2021/10/23 12:24:23;;;;;;;3.77;2.10;;;13.70;99.90;;;;;;6240243;22;20246;-87
2021/10/23 12:27:25;;;;;;;3.40;1.57;;;13.80;99.90;;;;;;6240612;22;20185;-87
2021/10/23 12:30:02;;;;;;;4.33;1.07;;;13.60;99.90;;;;;;6240136;22;20259;-84
2021/10/23 12:32:43;;;;;;;3.90;1.43;;;13.60;99.90;;;;;;6266486;22;20210;-86
2021/10/23 12:35:25;;;;;;;6.17;1.10;;;13.60;99.90;;;;;;6240099;22;20485;-86
2021/10/23 12:37:54;;;;;;;2.10;1.90;;;13.40;99.90;;;;;;6239996;22;20189;-86
2021/10/23 12:40:24;;;;;;;1.50;1.40;;;13.40;99.90;;;;;;6239747;22;20509;-87
2021/10/23 12:43:05;;;;;;;4.23;3.20;;;13.50;99.90;;;;;;6266860;22;20240;-87
2021/10/23 12:45:34;;;;;;;6.97;1.80;;;13.40;99.90;;;;;;6265941;22;20592;-86
2021/10/23 12:48:04;;;;;;;2.50;0.60;;;13.40;99.90;;;;;;6266862;22;20153;-86
2021/10/23 12:50:30;;;;;;;3.87;0.73;;;13.60;99.90;;;;;;6265423;22;20189;-86
2021/10/23 12:52:56;;;;;;;0.50;0.50;;;13.60;99.90;;;;;;6266214;22;20204;-85
2021/10/23 12:55:23;;;;;;;3.97;0.90;;;13.50;99.90;;;;;;6265901;22;20196;-87
2021/10/23 12:57:49;;;;;;;3.20;1.10;;;13.40;99.90;;;;;;6238581;22;20199;-86
2021/10/23 13:00:15;;;;;;;1.17;0.50;;;13.40;99.90;;;;;;6239494;22;20458;-86
2021/10/23 13:02:42;;;;;;;1.17;0.40;;;13.60;99.90;;;;;;6264317;22;20195;-87
2021/10/23 13:05:09;;;;;;;2.17;0.77;;;13.80;99.90;;;;;;6238221;22;20209;-86
2021/10/23 13:07:35;;;;;;;0.27;0.27;;;13.80;99.90;;;;;;6238467;22;20216;-86
2021/10/23 13:10:02;;;;;;;4.77;0.90;;;13.70;99.90;;;;;;6237982;22;20255;-87
2021/10/23 13:12:28;;;;;;;1.53;0.50;;;13.60;99.90;;;;;;6239004;22;20582;-86
2021/10/23 13:14:54;;;;;;;2.10;0.93;;;13.50;99.90;;;;;;6214192;22;20161;-86
2021/10/23 13:17:19;;;;;;;3.80;0.97;;;13.40;99.90;;;;;;6265963;22;20705;-87
2021/10/23 13:19:45;;;;;;;1.37;0.63;;;13.60;99.90;;;;;;6188737;22;20199;-87